Latest Coastal Weather Observations for Hogan Island

IDV60701

Issued at 8:12 pm EST Saturday 25 June 2022 (issued every 10 minutes, with the page automatically refreshed every 10 minutes)

About coastal observations | Map of coastal stations | Coastal observations for VIC | Marine services | Other Formats
Station Details ID: 200838 Name: HOGAN ISLAND Lat: -39.22 Lon: 146.98 Height: 116.0 m
Data from the previous 72 hours. | See also: Recent months at Hogan Island
Date/Time
EST
Wind Sea
Height
m
Swell Vis
km
Cloud Weather Temp
°C
Press
MSL
hPa
Rain since
9am
mm
Dir  Spd
kts
Gust
kts
Height
m
Period
s
Dir
25/08:00pm NW 23 30 - - - - - - - 12.3 1016.6 0.0
25/07:30pm NW 26 30 - - - - - - - 12.5 1016.6 0.0
25/07:00pm NW 25 31 - - - - - - - 12.5 1016.5 0.0
25/06:30pm NW 23 30 - - - - - - - 12.4 1016.2 0.0
25/06:00pm WNW 28 34 - - - - - - - 12.7 1015.8 0.0
25/05:30pm WNW 32 37 - - - - - - - 12.9 1015.7 0.0
25/05:00pm WNW 35 40 - - - - - - - 13.1 1015.2 0.0
25/04:30pm WNW 36 41 - - - - - - - 12.9 1014.9 0.0
25/04:00pm WNW 35 39 - - - - - - - 13.0 1014.9 0.0
25/03:30pm WNW 33 38 - - - - - - - 13.0 1015.2 0.0
25/03:00pm WNW 33 37 - - - - - - - 12.9 1015.0 0.0
25/02:30pm WNW 36 42 - - - - - - - 13.5 1014.7 0.0
25/02:00pm WNW 35 41 - - - - - - - 13.3 1014.5 0.0
25/01:30pm WNW 36 40 - - - - - - - 13.0 1014.7 0.0
25/01:00pm WNW 36 41 - - - - - - - 13.0 1014.5 0.0
25/12:30pm WNW 33 39 - - - - - - - 12.7 1014.9 0.0
25/12:00pm WNW 32 38 - - - - - - - 12.6 1015.4 0.0
25/11:30am WNW 32 37 - - - - - - - 11.9 1015.8 0.0
25/11:00am WNW 32 37 - - - - - - - 11.9 1015.9 0.0
25/10:30am WNW 33 39 - - - - - - - 11.7 1015.7 0.0
25/10:00am WNW 30 37 - - - - - - - 11.5 1016.0 0.0
25/09:30am WNW 31 37 - - - - - - - 11.5 1015.6 0.0
25/09:00am WNW 33 40 - - - - - - - 11.4 1015.0 3.6
25/08:30am WNW 34 41 - - - - - - - 11.3 1014.8 3.6
25/08:00am WNW 33 39 - - - - - - - 11.1 1015.0 3.6
25/07:30am WNW 35 40 - - - - - - - 10.9 1014.6 3.6
25/07:00am WNW 35 40 - - - - - - - 11.0 1014.2 3.6
25/06:30am WNW 34 38 - - - - - - - 10.9 1014.1 3.6
25/06:00am WNW 32 36 - - - - - - - 11.0 1014.0 3.6
25/05:30am WNW 30 37 - - - - - - - 10.7 1013.8 3.6
25/05:20am WNW 24 34 - - - - - - - 10.7 1014.0 3.6
25/05:00am WNW 22 28 - - - - - - - 10.7 1014.2 3.6
25/04:30am WNW 28 31 - - - - - - - 10.8 1013.8 3.6
25/04:00am WNW 26 30 - - - - - - - 10.7 1013.7 3.6
25/03:30am WNW 28 31 - - - - - - - 10.8 1013.7 3.6
25/03:00am WNW 29 32 - - - - - - - 10.9 1013.8 3.6
25/02:30am WNW 30 34 - - - - - - - 10.9 1013.7 3.6
25/02:00am WNW 25 30 - - - - - - - 10.8 1013.9 3.6
25/01:59am WNW 25 29 - - - - - - - 10.8 1013.9 3.6
25/01:30am WNW 17 19 - - - - - - - 11.1 1014.3 3.6
25/01:00am WNW 20 25 - - - - - - - 11.0 1014.5 3.6
25/12:30am WNW 22 28 - - - - - - - 11.2 1014.5 3.6
25/12:00am WNW 21 27 - - - - - - - 11.7 1014.6 3.4
 
Date/Time
EST
Wind Sea
Height
m
Swell Vis
km
Cloud Weather Temp
°C
Press
MSL
hPa
Rain since
9am
mm
Dir  Spd
kts
Gust
kts
Height
m
Period
s
Dir
24/11:30pm WNW 25 28 - - - - - - - 11.7 1014.6 3.4
24/11:00pm WNW 25 29 - - - - - - - 11.5 1014.6 3.4
24/10:30pm W 27 31 - - - - - - - 11.6 1014.7 3.4
24/10:00pm W 27 31 - - - - - - - 11.5 1014.7 3.4
24/09:30pm W 24 27 - - - - - - - 11.7 1014.7 3.4
24/09:00pm W 26 29 - - - - - - - 11.2 1014.3 3.4
24/08:30pm W 24 30 - - - - - - - 11.4 1014.3 3.4
24/08:00pm W 26 30 - - - - - - - 11.2 1014.2 3.4
24/07:30pm W 26 31 - - - - - - - 11.2 1014.1 3.4
24/07:00pm W 28 33 - - - - - - - 11.0 1013.7 3.4
24/06:30pm W 28 32 - - - - - - - 11.0 1013.4 3.4
24/06:00pm W 26 30 - - - - - - - 10.8 1013.3 3.4
24/05:30pm W 23 26 - - - - - - - 10.5 1013.2 3.4
24/05:00pm WSW 29 36 - - - - - - - 10.1 1012.8 3.4
24/04:53pm W 25 35 - - - - - - - 10.6 1012.6 3.4
24/04:30pm W 26 31 - - - - - - - 10.7 1012.6 3.4
24/04:00pm WSW 29 36 - - - - - - - 11.5 1012.0 2.6
24/03:30pm W 31 38 - - - - - - - 11.9 1011.7 2.6
24/03:00pm W 33 38 - - - - - - - 12.8 1011.1 2.6
24/02:30pm W 33 37 - - - - - - - 12.9 1011.1 2.6
24/02:00pm W 31 36 - - - - - - - 12.9 1011.0 2.6
24/01:30pm W 33 38 - - - - - - - 12.7 1010.7 2.6
24/01:00pm W 32 37 - - - - - - - 12.5 1010.8 2.6
24/12:30pm W 29 33 - - - - - - - 12.2 1011.0 2.6
24/12:00pm W 35 47 - - - - - - Rain 11.2 1011.0 2.6
24/11:50am W 35 48 - - - - - - - 12.3 1010.5 2.0
24/11:30am W 32 40 - - - - - - - 12.6 1010.4 2.0
24/11:00am W 30 33 - - - - - - - 11.9 1010.9 2.0
24/10:30am W 32 37 - - - - - - - 11.1 1010.8 1.6
24/10:18am W 37 47 - - - - - - - 11.0 1010.8 1.2
24/10:09am W 34 47 - - - - - - - 10.7 1010.3 0.0
24/10:03am WNW 28 38 - - - - - - - 12.2 1010.3 0.0
24/10:00am WNW 27 33 - - - - - - - 12.2 1010.5 0.0
24/09:30am WNW 28 33 - - - - - - - 12.0 1010.5 0.0
24/09:00am WNW 27 32 - - - - - - Recent precip. 11.6 1010.4 1.4
24/08:30am WNW 27 33 - - - - - - - 11.9 1010.1 0.0
24/08:12am NW 23 34 - - - - - - - 12.3 1010.0 0.0
24/08:00am WNW 22 27 - - - - - - - 12.4 1010.3 0.0
24/07:30am WNW 28 33 - - - - - - - 12.2 1009.6 0.0
24/07:00am WNW 35 41 - - - - - - - 12.1 1008.8 0.0
24/06:30am WNW 39 44 - - - - - - - 12.3 1008.3 0.0
24/06:00am WNW 41 47 - - - - - - - 12.3 1007.7 0.0
24/05:52am WNW 40 46 - - - - - - - 12.4 1007.7 0.0
24/05:30am WNW 32 43 - - - - - - - 12.6 1007.7 0.0
24/05:28am WNW 30 40 - - - - - - - 12.7 1007.9 0.0
24/05:00am WNW 36 43 - - - - - - - 13.0 1007.9 0.0
24/04:30am W 38 44 - - - - - - - 13.0 1007.6 0.0
24/04:00am WNW 37 45 - - - - - - - 14.0 1007.5 0.0
24/03:37am WNW 41 52 - - - - - - - 13.8 1006.9 0.0
24/03:30am WNW 40 45 - - - - - - - 14.3 1007.4 0.0
24/03:00am WNW 39 49 - - - - - - - 14.6 1007.4 0.0
24/02:56am WNW 38 49 - - - - - - - 14.7 1007.4 0.0
24/02:34am WNW 30 41 - - - - - - - 14.4 1008.3 0.0
24/02:30am WNW 28 36 - - - - - - - 14.3 1008.5 0.0
24/02:00am NW 27 33 - - - - - - - 13.8 1009.2 0.0
24/01:30am NW 31 36 - - - - - - - 13.7 1008.5 0.0
24/01:00am NW 25 31 - - - - - - - 13.4 1009.1 0.0
24/12:30am NW 22 26 - - - - - - - 13.3 1009.8 0.0
24/12:00am NNW 12 17 - - - - - - - 12.6 1010.5 0.0
 
Date/Time
EST
Wind Sea
Height
m
Swell Vis
km
Cloud Weather Temp
°C
Press
MSL
hPa
Rain since
9am
mm
Dir  Spd
kts
Gust
kts
Height
m
Period
s
Dir
23/11:30pm NNW 16 22 - - - - - - - 13.2 1010.7 0.0
23/11:00pm NNW 19 26 - - - - - - - 13.3 1011.0 0.0
23/10:46pm NNW 16 26 - - - - - - - 13.2 1011.1 0.0
23/10:30pm NNW 17 24 - - - - - - - 13.3 1011.4 0.0
23/10:00pm NNW 21 28 - - - - - - - 13.6 1011.6 0.0
23/09:30pm NNW 21 30 - - - - - - - 13.5 1011.9 0.0
23/09:00pm NW 28 33 - - - - - - - 13.6 1012.0 0.0
23/08:30pm NW 29 35 - - - - - - - 13.5 1012.3 0.0
23/08:00pm NW 28 32 - - - - - - - 13.5 1012.4 0.0
23/07:30pm NW 27 32 - - - - - - - 13.5 1012.9 0.0
23/07:00pm NW 26 33 - - - - - - - 13.5 1012.8 0.0
23/06:30pm NW 24 29 - - - - - - - 13.4 1012.9 0.0
23/06:00pm WNW 26 30 - - - - - - - 13.4 1013.0 0.0
23/05:30pm WNW 28 33 - - - - - - - 13.5 1013.0 0.0
23/05:00pm WNW 25 32 - - - - - - - 13.6 1013.1 0.0
23/04:30pm WNW 28 34 - - - - - - - 13.8 1013.2 0.0
23/04:00pm WNW 28 34 - - - - - - - 13.7 1013.6 0.0
23/03:30pm WNW 27 33 - - - - - - - 13.6 1013.8 0.0
23/03:00pm WNW 24 29 - - - - - - - 14.2 1014.1 0.0
23/02:30pm WNW 26 31 - - - - - - - 13.6 1014.3 0.0
23/02:00pm WNW 24 31 - - - - - - - 13.5 1014.7 0.0
23/01:30pm WNW 27 30 - - - - - - - 13.4 1015.1 0.0
23/01:00pm WNW 27 31 - - - - - - - 13.3 1015.7 0.0
23/12:30pm WNW 26 29 - - - - - - - 13.0 1016.4 0.0
23/12:00pm WNW 30 34 - - - - - - - 12.7 1016.8 0.0
23/11:30am WNW 28 31 - - - - - - - 12.5 1017.4 0.0
23/11:00am WNW 24 28 - - - - - - - 12.2 1018.1 0.0
23/10:30am WNW 23 27 - - - - - - - 12.0 1018.7 0.0
23/10:00am WNW 28 34 - - - - - - - 12.0 1018.8 0.0
23/09:30am WNW 28 33 - - - - - - - 12.5 1018.5 0.0
23/09:00am WNW 25 30 - - - - - - - 12.6 1018.7 0.0
23/08:30am WNW 27 30 - - - - - - - 12.6 1018.5 0.0
23/08:00am WNW 25 29 - - - - - - - 12.4 1018.6 0.0
23/07:30am WNW 27 31 - - - - - - - 12.2 1018.6 0.0
23/07:00am WNW 27 32 - - - - - - - 12.2 1018.7 0.0
23/06:30am WNW 26 30 - - - - - - - 12.0 1018.4 0.0
23/06:00am WNW 30 34 - - - - - - - 11.9 1018.3 0.0
23/05:30am WNW 30 34 - - - - - - - 11.7 1018.1 0.0
23/05:00am WNW 32 36 - - - - - - - 11.6 1017.8 0.0
23/04:30am WNW 29 33 - - - - - - - 11.5 1018.4 0.0
23/04:00am WNW 29 32 - - - - - - - 11.6 1019.0 0.0
23/03:30am WNW 30 33 - - - - - - - 11.5 1019.5 0.0
23/03:00am WNW 23 27 - - - - - - - 11.5 1019.6 0.0
23/02:30am WNW 28 31 - - - - - - - 11.8 1019.9 0.0
23/02:00am WNW 23 27 - - - - - - - 11.9 1020.3 0.0
23/01:30am WNW 19 23 - - - - - - - 11.7 1020.4 0.0
23/01:00am WNW 21 24 - - - - - - - 11.6 1020.7 0.0
23/12:30am WNW 17 22 - - - - - - - 11.5 1021.1 0.0
23/12:00am WNW 17 22 - - - - - - - 11.5 1021.2 0.0
 
Date/Time
EST
Wind Sea
Height
m
Swell Vis
km
Cloud Weather Temp
°C
Press
MSL
hPa
Rain since
9am
mm
Dir  Spd
kts
Gust
kts
Height
m
Period
s
Dir
22/11:30pm NW 14 17 - - - - - - - 11.6 1021.5 0.0
22/11:00pm WNW 18 21 - - - - - - - 11.5 1021.6 0.0
22/10:30pm NW 15 18 - - - - - - - 11.8 1021.8 0.0
22/10:00pm WNW 15 18 - - - - - - - 11.9 1021.9 0.0
22/09:30pm WNW 18 23 - - - - - - - 12.0 1022.0 0.0
22/09:00pm W 22 25 - - - - - - - 12.0 1021.9 0.0
22/08:30pm W 21 24 - - - - - - - 12.0 1021.7 0.0

Other formats

Comma delimited format used in spreadsheet applications
http://www.bom.gov.au/fwo/IDV60701/IDV60701.94949.axf

JavaScript Object Notation format (JSON) in row-major order
http://www.bom.gov.au/fwo/IDV60701/IDV60701.94949.json

Data quality

Most of these data are generated automatically and are frequently updated. Quality checks on data are not normally performed. It is possible for incorrect values to appear. Refer to information at About Latest Weather Observations and please check the disclaimer before using these data.